Sunday, December 17, 2017, 2:41 PM EST
Back to Local

KMQE, Milton Blue Hill Observ

Location: Milton, MA, United States Lat: 42.217
Local Time: 2:41 PM EST (19:41 GMT) Lon: -71.117
Time Zone: US/Eastern Elev: 629 ft

Show me the last for .
Show Coded

Time T Td Feel RH Dir Speed Gust Alt SLP Vis Weather Sky Remarks
2017-12-17 13:56 26 7 18 43 300° 7 - 30.17 30.23 0 None
2017-12-17 12:56 26 5 18 39 Variable 7 - 30.18 30.24 0 6-hr Min Temp (1pm): 15.1°F
6-hr Max Temp (1pm): 26.1°F
2017-12-17 11:56 25 6 14 43 300° 12 - 30.20 30.26 0 None
2017-12-17 10:56 23 7 13 49 320° 9 - 30.20 30.26 0 None
2017-12-17 09:56 20 6 4 54 320° 12 20 30.22 30.28 0 None
2017-12-17 08:56 18 10 8 70 290° 8 - 30.22 30.28 0 None
2017-12-17 07:56 15 7 3 69 290° 10 - 30.21 30.27 0 None
2017-12-17 06:56 15 9 3 76 310° 10 - 30.20 30.26 0 6-hr Min Temp (7am): 15.1°F
6-hr Max Temp (7am): 19.0°F
2017-12-17 05:56 16 6 3 64 290° 12 - 30.20 30.27 0 None
2017-12-17 04:56 16 7 2 66 290° 14 - 30.18 30.24 0 None
2017-12-17 03:56 17 9 3 69 280° 14 - 30.16 30.21 0 None
2017-12-17 02:56 17 11 5 76 290° 10 - 30.15 30.21 0 None
2017-12-17 01:56 18 13 7 80 300° 9 - 30.14 30.20 0 None
2017-12-17 00:56 19 14 9 80 310° 8 - 30.13 30.19 0 6-hr Min Temp (1am): 19.0°F
6-hr Max Temp (1am): 25.0°F
2017-12-16 23:56 20 15 9 81 300° 10 - 30.12 30.17 0 24-hr Min Temp (12am): 18.0°F
24-hr Max Temp (12am): 30.9°F
2017-12-16 22:56 22 14 10 71 290° 12 - 30.11 30.16 0 None
2017-12-16 21:56 23 15 12 71 300° 10 - 30.09 30.14 0 None
2017-12-16 20:56 24 15 14 68 300° 10 - 30.07 30.12 0 None
2017-12-16 19:56 24 16 14 70 300° 9 - 30.03 30.09 0 None
2017-12-16 18:56 25 17 13 71 280° 14 - 30.01 30.07 0 6-hr Min Temp (7pm): 25.0°F
6-hr Max Temp (7pm): 30.9°F
2017-12-16 17:56 26 18 16 70 280° 12 - 29.98 30.03 0 None
2017-12-16 16:56 27 16 16 62 280° 13 - 29.94 30.00 0 None
2017-12-16 15:56 29 14 15 53 280° 15 23 29.90 29.96 0 None
2017-12-16 14:56 30 12 14 46 260° 18 35 29.88 29.94 0 Peak wind: 34 mph (30 kts) from 270° at 47 min

Support USWX by starting your Amazon purchase here.